createdAt,value
2017-07-15T00:00:52.711Z,0
2017-07-15T00:01:52.852Z,0
2017-07-15T00:02:53.195Z,0
2017-07-15T00:03:52.788Z,0
2017-07-15T00:04:52.686Z,0
2017-07-15T00:05:52.722Z,0
2017-07-15T00:06:52.733Z,0
2017-07-15T00:07:52.754Z,0
2017-07-15T00:08:52.577Z,0
2017-07-15T00:09:52.922Z,0
2017-07-15T00:10:53.145Z,0
2017-07-15T00:11:52.965Z,0
2017-07-15T00:12:52.543Z,0
2017-07-15T00:13:53.412Z,0
2017-07-15T00:14:52.913Z,0
2017-07-15T00:15:52.610Z,0
2017-07-15T00:16:52.962Z,0
2017-07-15T00:17:52.986Z,0
2017-07-15T00:18:53.317Z,0
2017-07-15T00:19:53.029Z,0
2017-07-15T00:20:53.519Z,0
2017-07-15T00:21:52.860Z,0
2017-07-15T00:22:53.084Z,0
2017-07-15T00:23:53.565Z,0
2017-07-15T00:24:53.344Z,0
2017-07-15T00:25:53.159Z,0
2017-07-15T00:26:53.269Z,0
2017-07-15T00:27:53.755Z,0
2017-07-15T00:28:53.317Z,0
2017-07-15T00:29:53.250Z,0
2017-07-15T00:30:53.273Z,0
2017-07-15T00:31:53.297Z,0
2017-07-15T00:32:53.812Z,0
2017-07-15T00:33:53.337Z,0
2017-07-15T00:34:52.716Z,0
2017-07-15T00:35:53.056Z,0
2017-07-15T00:36:53.860Z,0
2017-07-15T00:37:53.193Z,0
2017-07-15T00:38:53.662Z,0
2017-07-15T00:39:53.904Z,0
2017-07-15T00:40:53.493Z,0
2017-07-15T00:41:53.511Z,0
2017-07-15T00:42:53.540Z,0
2017-07-15T00:43:53.361Z,0
2017-07-15T00:44:53.710Z,0
2017-07-15T00:45:53.603Z,0
2017-07-15T00:46:53.952Z,0
2017-07-15T00:47:53.645Z,0
2017-07-15T00:48:53.822Z,0
2017-07-15T00:49:53.691Z,0
2017-07-15T00:50:53.392Z,0
2017-07-15T00:51:53.737Z,0
2017-07-15T00:52:53.110Z,0
2017-07-15T00:53:53.572Z,0
2017-07-15T00:54:54.245Z,0
2017-07-15T00:55:53.502Z,0
2017-07-15T00:56:53.960Z,0
2017-07-15T00:57:53.548Z,0
2017-07-15T00:58:53.393Z,0
2017-07-15T00:59:53.594Z,0
2017-07-15T01:00:53.617Z,0
2017-07-15T01:01:53.973Z,0
2017-07-15T01:02:53.807Z,0
2017-07-15T01:03:53.872Z,0
2017-07-15T01:04:53.705Z,0
2017-07-15T01:05:54.382Z,0
2017-07-15T01:06:54.072Z,0
2017-07-15T01:07:54.411Z,0
2017-07-15T01:08:54.110Z,0
2017-07-15T01:09:54.139Z,0
2017-07-15T01:10:53.515Z,0
2017-07-15T01:11:54.176Z,0
2017-07-15T01:12:53.559Z,0
2017-07-15T01:13:53.903Z,0
2017-07-15T01:14:54.575Z,0
2017-07-15T01:15:54.591Z,0
2017-07-15T01:16:54.293Z,0
2017-07-15T01:17:54.435Z,0
2017-07-15T01:18:54.329Z,0
2017-07-15T01:19:54.359Z,0
2017-07-15T01:20:54.699Z,0
2017-07-15T01:21:54.076Z,0
2017-07-15T01:22:54.549Z,0
2017-07-15T01:23:54.767Z,0
2017-07-15T01:24:54.471Z,0
2017-07-15T01:25:54.488Z,0
2017-07-15T01:26:54.282Z,0
2017-07-15T01:27:54.532Z,0
2017-07-15T01:28:54.553Z,0
2017-07-15T01:29:54.965Z,0
2017-07-15T01:30:54.285Z,0
2017-07-15T01:31:54.759Z,0
2017-07-15T01:32:54.976Z,0
2017-07-15T01:33:54.870Z,0
2017-07-15T01:34:54.696Z,0
2017-07-15T01:35:54.227Z,0
2017-07-15T01:36:54.415Z,0
2017-07-15T01:37:54.819Z,0
2017-07-15T01:38:54.555Z,0
2017-07-15T01:39:54.818Z,0
2017-07-15T01:40:55.145Z,0
2017-07-15T01:41:54.518Z,0
2017-07-15T01:42:55.367Z,0
2017-07-15T01:43:55.208Z,0
2017-07-15T01:44:54.261Z,0
2017-07-15T01:45:55.255Z,0
2017-07-15T01:46:55.282Z,0
2017-07-15T01:47:55.098Z,0
2017-07-15T01:48:54.671Z,0
2017-07-15T01:49:55.134Z,0
2017-07-15T01:50:55.454Z,0
2017-07-15T01:51:55.068Z,0
2017-07-15T01:52:54.761Z,0
2017-07-15T01:53:55.109Z,0
2017-07-15T01:54:54.917Z,0
2017-07-15T01:55:55.152Z,0
2017-07-15T01:56:54.850Z,0
2017-07-15T01:57:55.187Z,0
2017-07-15T01:58:54.565Z,0
2017-07-15T01:59:55.562Z,0
2017-07-15T02:00:55.674Z,0
2017-07-15T02:01:55.284Z,0
2017-07-15T02:02:55.399Z,0
2017-07-15T02:03:55.777Z,0
2017-07-15T02:04:55.773Z,0
2017-07-15T02:05:56.101Z,0
2017-07-15T02:06:55.060Z,0
2017-07-15T02:07:55.412Z,0
2017-07-15T02:08:55.757Z,0
2017-07-15T02:09:55.449Z,0
2017-07-15T02:10:55.513Z,0
2017-07-15T02:11:55.826Z,0
2017-07-15T02:12:55.846Z,0
2017-07-15T02:13:55.301Z,0
2017-07-15T02:14:55.563Z,0
2017-07-15T02:15:55.706Z,0
2017-07-15T02:16:55.380Z,0
2017-07-15T02:17:55.747Z,0
2017-07-15T02:18:55.327Z,0
2017-07-15T02:19:56.001Z,0
2017-07-15T02:20:55.726Z,0
2017-07-15T02:21:55.063Z,0
2017-07-15T02:22:55.419Z,0
2017-07-15T02:23:56.082Z,0
2017-07-15T02:24:56.213Z,0
2017-07-15T02:25:55.905Z,0
2017-07-15T02:26:55.842Z,0
2017-07-15T02:27:55.848Z,0
2017-07-15T02:28:55.549Z,0
2017-07-15T02:29:55.566Z,0
2017-07-15T02:30:55.586Z,0
2017-07-15T02:31:55.474Z,0
2017-07-15T02:32:55.957Z,0
2017-07-15T02:33:56.296Z,0
2017-07-15T02:34:56.321Z,0
2017-07-15T02:35:56.130Z,0
2017-07-15T02:36:56.148Z,0
2017-07-15T02:37:56.166Z,0
2017-07-15T02:38:56.414Z,0
2017-07-15T02:39:55.815Z,0
2017-07-15T02:40:55.805Z,0
2017-07-15T02:41:55.831Z,0
2017-07-15T02:42:56.180Z,0
2017-07-15T02:43:56.195Z,0
2017-07-15T02:44:55.890Z,0
2017-07-15T02:45:55.594Z,0
2017-07-15T02:46:56.670Z,0
2017-07-15T02:47:56.992Z,0
2017-07-15T02:48:56.623Z,0
2017-07-15T02:49:56.330Z,0
2017-07-15T02:50:56.672Z,0
2017-07-15T02:51:56.376Z,0
2017-07-15T02:52:56.069Z,0
2017-07-15T02:53:56.406Z,0
2017-07-15T02:54:56.449Z,0
2017-07-15T02:55:56.785Z,0
2017-07-15T02:56:56.155Z,4
2017-07-15T02:57:56.504Z,4
2017-07-15T02:58:56.660Z,0
2017-07-15T02:59:56.223Z,4
2017-07-15T03:00:56.661Z,4
2017-07-15T03:01:56.607Z,0
2017-07-15T03:02:55.961Z,0
2017-07-15T03:03:55.986Z,0
2017-07-15T03:04:56.654Z,0
2017-07-15T03:05:56.676Z,4
2017-07-15T03:06:56.812Z,4
2017-07-15T03:07:56.388Z,4
2017-07-15T03:08:56.759Z,4
2017-07-15T03:09:56.758Z,4
2017-07-15T03:10:56.941Z,12
2017-07-15T03:11:57.121Z,8
2017-07-15T03:12:56.828Z,8
2017-07-15T03:13:56.522Z,8
2017-07-15T03:14:57.062Z,8
2017-07-15T03:15:56.892Z,12
2017-07-15T03:16:56.915Z,12
2017-07-15T03:17:56.614Z,16
2017-07-15T03:18:56.961Z,16
2017-07-15T03:19:57.304Z,16
2017-07-15T03:20:57.324Z,20
2017-07-15T03:21:57.138Z,32
2017-07-15T03:22:57.040Z,40
2017-07-15T03:23:57.062Z,40
2017-07-15T03:24:57.088Z,40
2017-07-15T03:25:56.892Z,52
2017-07-15T03:26:56.917Z,52
2017-07-15T03:27:57.467Z,44
2017-07-15T03:28:57.496Z,48
2017-07-15T03:29:57.225Z,44
2017-07-15T03:30:56.891Z,44
2017-07-15T03:31:57.677Z,44
2017-07-15T03:32:56.942Z,40
2017-07-15T03:33:57.284Z,40
2017-07-15T03:34:57.428Z,36
2017-07-15T03:35:57.646Z,40
2017-07-15T03:36:57.114Z,40
2017-07-15T03:37:57.457Z,44
2017-07-15T03:38:57.620Z,52
2017-07-15T03:39:57.737Z,56
2017-07-15T03:40:57.756Z,48
2017-07-15T03:41:57.453Z,44
2017-07-15T03:42:57.472Z,44
2017-07-15T03:43:57.615Z,44
2017-07-15T03:44:57.200Z,44
2017-07-15T03:45:57.639Z,36
2017-07-15T03:46:57.238Z,40
2017-07-15T03:47:58.021Z,44
2017-07-15T03:48:57.608Z,44
2017-07-15T03:49:57.971Z,44
2017-07-15T03:50:57.325Z,44
2017-07-15T03:51:57.349Z,52
2017-07-15T03:52:57.366Z,52
2017-07-15T03:53:57.809Z,68
2017-07-15T03:54:57.734Z,80
2017-07-15T03:55:57.857Z,76
2017-07-15T03:56:57.457Z,84
2017-07-15T03:57:57.476Z,76
2017-07-15T03:58:57.502Z,72
2017-07-15T03:59:57.892Z,64
2017-07-15T04:00:57.542Z,64
2017-07-15T04:01:57.670Z,60
2017-07-15T04:02:57.907Z,76
2017-07-15T04:03:57.923Z,68
2017-07-15T04:04:57.629Z,68
2017-07-15T04:05:57.976Z,64
2017-07-15T04:06:58.317Z,76
2017-07-15T04:07:58.350Z,56
2017-07-15T04:08:57.716Z,56
2017-07-15T04:09:58.062Z,72
2017-07-15T04:10:58.405Z,96
2017-07-15T04:11:57.462Z,88
2017-07-15T04:12:58.216Z,96
2017-07-15T04:13:58.570Z,96
2017-07-15T04:14:57.922Z,116
2017-07-15T04:15:58.260Z,128
2017-07-15T04:16:58.539Z,120
2017-07-15T04:17:57.905Z,116
2017-07-15T04:18:58.255Z,140
2017-07-15T04:19:57.967Z,152
2017-07-15T04:20:57.976Z,120
2017-07-15T04:21:57.996Z,156
2017-07-15T04:22:58.342Z,160
2017-07-15T04:23:58.037Z,224
2017-07-15T04:24:58.386Z,236
2017-07-15T04:25:58.734Z,216
2017-07-15T04:26:58.746Z,220
2017-07-15T04:27:58.454Z,160
2017-07-15T04:28:58.798Z,208
2017-07-15T04:29:58.495Z,256
2017-07-15T04:30:58.508Z,276
2017-07-15T04:31:58.929Z,324
2017-07-15T04:32:58.556Z,380
2017-07-15T04:33:58.581Z,344
2017-07-15T04:34:58.945Z,304
2017-07-15T04:35:58.621Z,328
2017-07-15T04:36:58.961Z,332
2017-07-15T04:37:58.343Z,312
2017-07-15T04:38:58.687Z,324
2017-07-15T04:39:58.702Z,328
2017-07-15T04:40:59.057Z,328
2017-07-15T04:41:59.191Z,320
2017-07-15T04:42:58.454Z,324
2017-07-15T04:43:58.938Z,340
2017-07-15T04:44:58.493Z,376
2017-07-15T04:45:58.846Z,380
2017-07-15T04:46:58.869Z,432
2017-07-15T04:47:58.880Z,488
2017-07-15T04:48:58.907Z,480
2017-07-15T04:49:58.604Z,524
2017-07-15T04:50:58.624Z,460
2017-07-15T04:51:58.968Z,424
2017-07-15T04:52:59.313Z,384
2017-07-15T04:53:59.536Z,348
2017-07-15T04:54:59.121Z,320
2017-07-15T04:55:59.561Z,316
2017-07-15T04:56:59.200Z,336
2017-07-15T04:57:59.157Z,364
2017-07-15T04:58:59.474Z,404
2017-07-15T04:59:58.819Z,440
2017-07-15T05:00:59.489Z,456
2017-07-15T05:01:59.504Z,440
2017-07-15T05:02:58.878Z,436
2017-07-15T05:03:59.222Z,456
2017-07-15T05:04:59.250Z,472
2017-07-15T05:05:59.593Z,568
2017-07-15T05:06:58.645Z,632
2017-07-15T05:07:59.307Z,644
2017-07-15T05:08:59.008Z,672
2017-07-15T05:09:59.023Z,664
2017-07-15T05:10:59.046Z,644
2017-07-15T05:11:59.077Z,600
2017-07-15T05:12:59.446Z,532
2017-07-15T05:13:59.440Z,500
2017-07-15T05:14:59.901Z,456
2017-07-15T05:15:59.512Z,464
2017-07-15T05:16:59.862Z,420
2017-07-15T05:17:59.528Z,412
2017-07-15T05:18:59.881Z,584
2017-07-15T05:19:59.248Z,516
2017-07-15T05:20:59.269Z,584
2017-07-15T05:21:59.952Z,704
2017-07-15T05:22:59.309Z,748
2017-07-15T05:23:59.980Z,704
2017-07-15T05:24:59.674Z,668
2017-07-15T05:25:59.706Z,700
2017-07-15T05:26:59.723Z,732
2017-07-15T05:27:59.753Z,712
2017-07-15T05:28:59.779Z,716
2017-07-15T05:30:00.239Z,664
2017-07-15T05:30:59.481Z,980
2017-07-15T05:32:00.157Z,1020
2017-07-15T05:32:59.720Z,932
2017-07-15T05:33:59.731Z,1232
2017-07-15T05:35:00.014Z,1176
2017-07-15T05:35:59.934Z,1208
2017-07-15T05:36:59.936Z,1544
2017-07-15T05:37:59.961Z,1088
2017-07-15T05:38:59.988Z,1148
2017-07-15T05:39:59.814Z,724
2017-07-15T05:41:00.350Z,620
2017-07-15T05:42:00.378Z,500
2017-07-15T05:42:59.847Z,520
2017-07-15T05:43:59.769Z,748
2017-07-15T05:45:00.433Z,904
2017-07-15T05:46:00.461Z,952
2017-07-15T05:46:59.835Z,1200
2017-07-15T05:48:00.178Z,1556
2017-07-15T05:49:00.525Z,1760
2017-07-15T05:50:00.545Z,1984
2017-07-15T05:50:59.920Z,1488
2017-07-15T05:52:00.278Z,1472
2017-07-15T05:53:00.291Z,1776
2017-07-15T05:54:00.639Z,816
2017-07-15T05:55:00.771Z,788
2017-07-15T05:56:00.033Z,1096
2017-07-15T05:57:00.050Z,1224
2017-07-15T05:58:00.805Z,1436
2017-07-15T05:59:00.480Z,1340
2017-07-15T06:00:00.498Z,900
2017-07-15T06:01:00.814Z,436
2017-07-15T06:02:00.510Z,448
2017-07-15T06:03:00.506Z,804
2017-07-15T06:04:00.539Z,668
2017-07-15T06:05:00.888Z,764
2017-07-15T06:06:00.247Z,784
2017-07-15T06:07:00.595Z,716
2017-07-15T06:08:00.292Z,632
2017-07-15T06:09:00.968Z,748
2017-07-15T06:10:00.336Z,520
2017-07-15T06:11:00.472Z,796
2017-07-15T06:12:00.479Z,692
2017-07-15T06:13:00.610Z,684
2017-07-15T06:14:00.749Z,916
2017-07-15T06:15:00.772Z,1052
2017-07-15T06:16:01.113Z,1096
2017-07-15T06:17:00.168Z,1192
2017-07-15T06:18:01.158Z,1324
2017-07-15T06:19:00.850Z,1292
2017-07-15T06:20:00.551Z,1352
2017-07-15T06:21:00.900Z,1088
2017-07-15T06:22:00.739Z,1228
2017-07-15T06:23:00.403Z,1576
2017-07-15T06:24:00.398Z,1592
2017-07-15T06:25:01.093Z,1464
2017-07-15T06:26:01.118Z,1048
2017-07-15T06:27:01.117Z,1052
2017-07-15T06:28:00.793Z,952
2017-07-15T06:29:01.081Z,948
2017-07-15T06:30:01.099Z,948
2017-07-15T06:31:01.222Z,852
2017-07-15T06:32:01.558Z,784
2017-07-15T06:33:00.845Z,584
2017-07-15T06:34:00.865Z,852
2017-07-15T06:35:01.210Z,1020
2017-07-15T06:36:00.904Z,600
2017-07-15T06:37:01.252Z,596
2017-07-15T06:38:01.610Z,664
2017-07-15T06:39:01.635Z,732
2017-07-15T06:40:01.648Z,856
2017-07-15T06:41:01.343Z,1184
2017-07-15T06:42:01.359Z,940
2017-07-15T06:43:01.065Z,884
2017-07-15T06:44:01.406Z,988
2017-07-15T06:45:01.435Z,892
2017-07-15T06:46:01.779Z,876
2017-07-15T06:47:01.798Z,1136
2017-07-15T06:48:01.822Z,888
2017-07-15T06:49:01.210Z,776
2017-07-15T06:50:01.220Z,1588
2017-07-15T06:51:01.948Z,1656
2017-07-15T06:52:01.274Z,1588
2017-07-15T06:53:01.995Z,1560
2017-07-15T06:54:02.040Z,1552
2017-07-15T06:55:01.659Z,1296
2017-07-15T06:56:01.739Z,1152
2017-07-15T06:57:02.048Z,1236
2017-07-15T06:58:01.806Z,1324
2017-07-15T06:59:01.664Z,1416
2017-07-15T07:00:01.528Z,1116
2017-07-15T07:01:02.306Z,1260
2017-07-15T07:02:02.327Z,1216
2017-07-15T07:03:02.040Z,1196
2017-07-15T07:04:01.977Z,1156
2017-07-15T07:05:02.328Z,1144
2017-07-15T07:06:01.896Z,1152
2017-07-15T07:07:01.910Z,1192
2017-07-15T07:08:01.943Z,1188
2017-07-15T07:09:02.059Z,1204
2017-07-15T07:10:02.403Z,1204
2017-07-15T07:11:02.410Z,1188
2017-07-15T07:12:02.188Z,1180
2017-07-15T07:13:02.208Z,1188
2017-07-15T07:14:02.105Z,1224
2017-07-15T07:15:02.236Z,1264
2017-07-15T07:16:01.804Z,1300
2017-07-15T07:17:02.473Z,1340
2017-07-15T07:18:02.604Z,1360
2017-07-15T07:19:01.536Z,1324
2017-07-15T07:20:02.211Z,1272
2017-07-15T07:21:01.896Z,1208
2017-07-15T07:22:02.274Z,1156
2017-07-15T07:23:01.628Z,1004
2017-07-15T07:24:01.974Z,976
2017-07-15T07:25:02.644Z,1136
2017-07-15T07:26:02.344Z,1188
2017-07-15T07:27:01.713Z,1220
2017-07-15T07:28:02.063Z,904
2017-07-15T07:29:02.413Z,1108
2017-07-15T07:30:02.758Z,936
2017-07-15T07:31:02.774Z,1244
2017-07-15T07:32:02.154Z,1308
2017-07-15T07:33:02.500Z,1404
2017-07-15T07:34:02.518Z,1472
2017-07-15T07:35:02.544Z,1316
2017-07-15T07:36:02.817Z,1212
2017-07-15T07:37:02.918Z,1304
2017-07-15T07:38:02.933Z,1212
2017-07-15T07:39:02.629Z,1068
2017-07-15T07:40:02.663Z,1300
2017-07-15T07:41:02.353Z,1532
2017-07-15T07:42:02.379Z,1532
2017-07-15T07:43:03.041Z,1572
2017-07-15T07:44:03.068Z,1676
2017-07-15T07:45:02.439Z,1792
2017-07-15T07:46:02.461Z,1640
2017-07-15T07:47:02.489Z,1396
2017-07-15T07:48:02.998Z,1716
2017-07-15T07:49:02.657Z,1288
2017-07-15T07:50:02.978Z,1572
2017-07-15T07:51:03.051Z,1932
2017-07-15T07:52:02.629Z,1872
2017-07-15T07:53:02.964Z,1928
2017-07-15T07:54:02.989Z,2140
2017-07-15T07:55:02.986Z,2156
2017-07-15T07:56:03.019Z,2164
2017-07-15T07:57:03.362Z,2160
2017-07-15T07:58:03.385Z,2164
2017-07-15T07:59:03.407Z,2096
2017-07-15T08:00:03.104Z,2224
2017-07-15T08:01:03.128Z,2148
2017-07-15T08:02:03.176Z,2284
2017-07-15T08:03:02.854Z,2384
2017-07-15T08:04:03.547Z,2456
2017-07-15T08:05:03.537Z,2496
2017-07-15T08:06:03.236Z,2412
2017-07-15T08:07:03.587Z,1952
2017-07-15T08:08:02.642Z,1816
2017-07-15T08:09:03.633Z,2188
2017-07-15T08:10:03.343Z,2108
2017-07-15T08:11:03.675Z,2084
2017-07-15T08:12:03.391Z,2088
2017-07-15T08:13:03.401Z,1948
2017-07-15T08:14:03.420Z,1884
2017-07-15T08:15:03.143Z,1864
2017-07-15T08:16:03.483Z,1896
2017-07-15T08:17:03.492Z,1920
2017-07-15T08:18:03.518Z,1968
2017-07-15T08:19:03.540Z,2008
2017-07-15T08:20:03.551Z,2000
2017-07-15T08:21:03.901Z,1996
2017-07-15T08:22:03.642Z,1960
2017-07-15T08:23:03.303Z,1928
2017-07-15T08:24:03.022Z,1980
2017-07-15T08:25:03.678Z,1984
2017-07-15T08:26:03.703Z,2020
2017-07-15T08:27:03.720Z,2036
2017-07-15T08:28:03.418Z,1960
2017-07-15T08:29:03.762Z,1448
2017-07-15T08:30:03.137Z,1444
2017-07-15T08:31:03.161Z,1468
2017-07-15T08:32:04.148Z,1620
2017-07-15T08:33:03.528Z,1788
2017-07-15T08:34:03.572Z,1644
2017-07-15T08:35:04.231Z,1676
2017-07-15T08:36:03.923Z,1672
2017-07-15T08:37:04.309Z,1664
2017-07-15T08:38:03.654Z,1692
2017-07-15T08:39:03.670Z,1716
2017-07-15T08:40:04.019Z,1704
2017-07-15T08:41:03.393Z,1688
2017-07-15T08:42:03.743Z,1768
2017-07-15T08:43:04.088Z,1836
2017-07-15T08:44:04.105Z,1912
2017-07-15T08:45:04.474Z,1936
2017-07-15T08:46:04.586Z,2064
2017-07-15T08:47:04.299Z,2232
2017-07-15T08:48:04.290Z,2424
2017-07-15T08:49:03.903Z,2372
2017-07-15T08:50:03.924Z,2108
2017-07-15T08:51:04.270Z,2028
2017-07-15T08:52:03.676Z,1864
2017-07-15T08:53:04.110Z,1740
2017-07-15T08:54:04.024Z,1688
2017-07-15T08:55:04.455Z,1700
2017-07-15T08:56:04.056Z,2212
2017-07-15T08:57:04.209Z,2352
2017-07-15T08:58:04.523Z,2328
2017-07-15T08:59:04.230Z,2100
2017-07-15T09:00:04.248Z,2060
2017-07-15T09:01:04.691Z,2416
2017-07-15T09:02:04.423Z,2712
2017-07-15T09:03:04.706Z,2696
2017-07-15T09:04:05.017Z,2580
2017-07-15T09:05:04.379Z,2372
2017-07-15T09:06:04.521Z,2196
2017-07-15T09:07:04.845Z,1988
2017-07-15T09:08:05.002Z,1880
2017-07-15T09:09:05.034Z,1624
2017-07-15T09:10:04.714Z,1644
2017-07-15T09:11:04.738Z,1792
2017-07-15T09:12:04.763Z,1984
2017-07-15T09:13:04.787Z,2436
2017-07-15T09:14:05.127Z,2604
2017-07-15T09:15:04.501Z,2600
2017-07-15T09:16:04.528Z,2528
2017-07-15T09:17:04.880Z,2408
2017-07-15T09:18:04.897Z,2304
2017-07-15T09:19:04.916Z,2368
2017-07-15T09:20:04.625Z,2232
2017-07-15T09:21:04.322Z,1604
2017-07-15T09:22:04.997Z,1912
2017-07-15T09:23:04.368Z,2820
2017-07-15T09:24:05.041Z,2960
2017-07-15T09:25:05.069Z,2924
2017-07-15T09:26:05.102Z,2876
2017-07-15T09:27:05.191Z,2776
2017-07-15T09:28:05.512Z,2656
2017-07-15T09:29:04.836Z,2436
2017-07-15T09:30:05.186Z,2220
2017-07-15T09:31:05.210Z,2136
2017-07-15T09:32:05.226Z,2184
2017-07-15T09:33:05.261Z,2168
2017-07-15T09:34:05.289Z,2220
2017-07-15T09:35:04.984Z,2196
2017-07-15T09:36:05.356Z,2096
2017-07-15T09:37:05.675Z,1888
2017-07-15T09:38:05.717Z,1712
2017-07-15T09:39:05.393Z,1612
2017-07-15T09:40:05.098Z,1564
2017-07-15T09:41:05.441Z,1504
2017-07-15T09:42:05.479Z,1448
2017-07-15T09:43:05.498Z,1416
2017-07-15T09:44:05.838Z,1416
2017-07-15T09:45:05.543Z,1544
2017-07-15T09:46:05.560Z,1712
2017-07-15T09:47:05.590Z,1672
2017-07-15T09:48:05.296Z,1564
2017-07-15T09:49:05.957Z,1568
2017-07-15T09:50:05.342Z,1968
2017-07-15T09:51:05.036Z,1876
2017-07-15T09:52:05.093Z,1920
2017-07-15T09:53:05.735Z,1936
2017-07-15T09:54:05.121Z,1988
2017-07-15T09:55:05.458Z,2140
2017-07-15T09:56:06.135Z,2384
2017-07-15T09:57:05.505Z,2000
2017-07-15T09:58:05.853Z,1924
2017-07-15T09:59:05.875Z,2040
2017-07-15T10:00:05.901Z,1756
2017-07-15T10:01:05.912Z,1724
2017-07-15T10:02:05.956Z,1936
2017-07-15T10:03:06.307Z,2084
2017-07-15T10:04:06.148Z,1984
2017-07-15T10:05:05.371Z,2568
2017-07-15T10:06:05.848Z,2664
2017-07-15T10:07:06.169Z,2668
2017-07-15T10:08:06.199Z,2400
2017-07-15T10:09:05.789Z,1760
2017-07-15T10:10:06.190Z,1664
2017-07-15T10:11:06.520Z,1320
2017-07-15T10:12:06.294Z,1324
2017-07-15T10:13:06.218Z,1368
2017-07-15T10:14:06.647Z,1984
2017-07-15T10:15:06.019Z,1964
2017-07-15T10:16:06.613Z,1956
2017-07-15T10:17:06.108Z,1980
2017-07-15T10:18:06.121Z,2048
2017-07-15T10:19:06.912Z,2260
2017-07-15T10:20:06.289Z,2872
2017-07-15T10:21:06.632Z,3992
2017-07-15T10:22:06.234Z,4200
2017-07-15T10:23:06.338Z,3600
2017-07-15T10:24:06.567Z,2876
2017-07-15T10:25:05.977Z,2048
2017-07-15T10:26:06.736Z,1636
2017-07-15T10:27:06.335Z,1504
2017-07-15T10:28:06.478Z,1676
2017-07-15T10:29:06.459Z,2684
2017-07-15T10:30:06.793Z,3280
2017-07-15T10:31:06.742Z,3916
2017-07-15T10:32:06.463Z,3832
2017-07-15T10:33:06.824Z,3540
2017-07-15T10:34:07.155Z,2120
2017-07-15T10:35:06.444Z,2112
2017-07-15T10:36:06.786Z,2220
2017-07-15T10:37:06.809Z,2400
2017-07-15T10:38:06.185Z,2584
2017-07-15T10:39:06.538Z,2696
2017-07-15T10:40:06.548Z,2828
2017-07-15T10:41:06.906Z,2964
2017-07-15T10:42:06.611Z,3024
2017-07-15T10:43:06.634Z,3092
2017-07-15T10:44:06.664Z,3456
2017-07-15T10:45:07.009Z,3492
2017-07-15T10:46:07.037Z,2348
2017-07-15T10:47:07.067Z,2144
2017-07-15T10:48:06.765Z,2176
2017-07-15T10:49:07.106Z,2140
2017-07-15T10:50:07.141Z,2068
2017-07-15T10:51:07.161Z,2116
2017-07-15T10:52:06.867Z,1984
2017-07-15T10:53:07.214Z,1772
2017-07-15T10:54:07.257Z,1648
2017-07-15T10:55:07.604Z,1552
2017-07-15T10:56:07.290Z,1584
2017-07-15T10:57:06.995Z,1616
2017-07-15T10:58:06.945Z,1708
2017-07-15T10:59:07.368Z,1904
2017-07-15T11:00:07.095Z,2148
2017-07-15T11:01:07.426Z,2464
2017-07-15T11:02:07.765Z,2740
2017-07-15T11:03:06.821Z,3028
2017-07-15T11:04:07.504Z,3360
2017-07-15T11:05:07.526Z,3724
2017-07-15T11:06:07.580Z,3976
2017-07-15T11:07:07.916Z,3996
2017-07-15T11:08:07.646Z,3996
2017-07-15T11:09:07.627Z,4000
2017-07-15T11:10:07.335Z,3956
2017-07-15T11:11:07.355Z,4056
2017-07-15T11:12:07.072Z,4480
2017-07-15T11:13:07.731Z,5192
2017-07-15T11:14:07.453Z,5320
2017-07-15T11:15:07.142Z,5308
2017-07-15T11:16:07.862Z,5080
2017-07-15T11:17:07.518Z,4620
2017-07-15T11:18:07.868Z,4040
2017-07-15T11:19:08.215Z,3624
2017-07-15T11:20:07.308Z,3316
2017-07-15T11:21:08.255Z,3144
2017-07-15T11:22:07.653Z,3068
2017-07-15T11:23:08.321Z,3024
2017-07-15T11:24:08.021Z,3048
2017-07-15T11:25:07.399Z,3216
2017-07-15T11:26:07.776Z,3384
2017-07-15T11:27:07.777Z,3420
2017-07-15T11:28:08.458Z,2912
2017-07-15T11:29:08.150Z,2400
2017-07-15T11:30:08.181Z,2460
2017-07-15T11:31:07.887Z,2588
2017-07-15T11:32:08.240Z,2256
2017-07-15T11:33:08.268Z,3596
2017-07-15T11:34:07.991Z,3968
2017-07-15T11:35:07.994Z,4384
2017-07-15T11:36:08.036Z,4692
2017-07-15T11:37:07.729Z,4564
2017-07-15T11:38:08.724Z,2980
2017-07-15T11:39:07.780Z,2924
2017-07-15T11:40:08.130Z,2632
2017-07-15T11:41:07.834Z,2156
2017-07-15T11:42:07.925Z,1976
2017-07-15T11:43:08.534Z,2028
2017-07-15T11:44:08.241Z,2084
2017-07-15T11:45:08.915Z,3444
2017-07-15T11:46:08.941Z,3464
2017-07-15T11:47:08.332Z,3900
2017-07-15T11:48:08.983Z,4524
2017-07-15T11:49:08.698Z,4596
2017-07-15T11:50:08.409Z,3932
2017-07-15T11:51:08.757Z,2552
2017-07-15T11:52:08.785Z,2956
2017-07-15T11:53:08.807Z,4828
2017-07-15T11:54:08.508Z,5128
2017-07-15T11:55:08.862Z,5376
2017-07-15T11:56:08.891Z,5144
2017-07-15T11:57:08.935Z,5276
2017-07-15T11:58:08.949Z,5020
2017-07-15T11:59:08.976Z,5168
2017-07-15T12:00:09.330Z,5332
2017-07-15T12:01:08.702Z,4948
2017-07-15T12:02:08.763Z,5148
2017-07-15T12:03:08.760Z,4868
2017-07-15T12:04:09.120Z,4952
2017-07-15T12:05:08.817Z,4076
2017-07-15T12:06:09.396Z,4268
2017-07-15T12:07:09.309Z,4672
2017-07-15T12:08:09.015Z,4800
2017-07-15T12:09:09.256Z,4736
2017-07-15T12:10:09.289Z,4844
2017-07-15T12:11:08.667Z,5200
2017-07-15T12:12:08.697Z,6476
2017-07-15T12:13:09.496Z,5524
2017-07-15T12:14:09.818Z,5060
2017-07-15T12:15:08.786Z,6432
2017-07-15T12:16:09.458Z,4820
2017-07-15T12:17:09.636Z,4476
2017-07-15T12:18:09.201Z,4620
2017-07-15T12:19:09.236Z,4908
2017-07-15T12:20:09.572Z,5592
2017-07-15T12:21:09.710Z,5440
2017-07-15T12:22:09.707Z,5852
2017-07-15T12:23:10.005Z,4708
2017-07-15T12:24:09.358Z,6092
2017-07-15T12:25:09.723Z,6524
2017-07-15T12:26:10.228Z,5332
2017-07-15T12:27:09.901Z,5276
2017-07-15T12:28:09.595Z,6272
2017-07-15T12:29:09.502Z,7036
2017-07-15T12:30:09.863Z,7412
2017-07-15T12:31:10.259Z,5460
2017-07-15T12:32:09.920Z,5488
2017-07-15T12:33:09.940Z,7184
2017-07-15T12:34:09.978Z,8092
2017-07-15T12:35:09.823Z,7892
2017-07-15T12:36:10.434Z,7844
2017-07-15T12:37:10.060Z,6976
2017-07-15T12:38:10.132Z,6384
2017-07-15T12:39:10.129Z,6184
2017-07-15T12:40:09.849Z,5968
2017-07-15T12:41:09.864Z,6188
2017-07-15T12:42:09.887Z,5704
2017-07-15T12:43:10.238Z,5664
2017-07-15T12:44:09.953Z,5424
2017-07-15T12:45:10.301Z,5424
2017-07-15T12:46:10.009Z,5532
2017-07-15T12:47:10.364Z,5484
2017-07-15T12:48:10.400Z,6020
2017-07-15T12:49:10.744Z,5488
2017-07-15T12:50:10.126Z,5480
2017-07-15T12:51:10.807Z,5508
2017-07-15T12:52:10.189Z,5504
2017-07-15T12:53:10.548Z,5420
2017-07-15T12:54:10.248Z,5204
2017-07-15T12:55:10.280Z,5344
2017-07-15T12:56:10.628Z,5344
2017-07-15T12:57:10.666Z,5516
2017-07-15T12:58:10.693Z,5340
2017-07-15T12:59:11.053Z,5692
2017-07-15T13:00:11.079Z,5068
2017-07-15T13:01:10.462Z,4920
2017-07-15T13:02:11.144Z,4824
2017-07-15T13:03:10.196Z,4732
2017-07-15T13:04:10.878Z,4648
2017-07-15T13:05:11.347Z,4584
2017-07-15T13:06:10.970Z,4556
2017-07-15T13:07:10.642Z,4532
2017-07-15T13:08:11.000Z,4492
2017-07-15T13:09:10.711Z,4540
2017-07-15T13:10:11.056Z,4608
2017-07-15T13:11:10.764Z,4708
2017-07-15T13:12:10.798Z,4816
2017-07-15T13:13:11.163Z,4936
2017-07-15T13:14:10.862Z,5012
2017-07-15T13:15:11.329Z,5040
2017-07-15T13:16:11.327Z,5020
2017-07-15T13:17:10.950Z,4972
2017-07-15T13:18:11.392Z,4952
2017-07-15T13:19:11.498Z,5004
2017-07-15T13:20:11.048Z,5128
2017-07-15T13:21:11.816Z,5404
2017-07-15T13:22:11.633Z,6220
2017-07-15T13:23:11.137Z,6508
2017-07-15T13:24:11.281Z,6024
2017-07-15T13:25:11.198Z,5040
2017-07-15T13:26:11.646Z,4868
2017-07-15T13:27:11.816Z,4476
2017-07-15T13:28:11.797Z,4296
2017-07-15T13:29:11.816Z,4152
2017-07-15T13:30:12.005Z,4008
2017-07-15T13:31:11.710Z,3876
2017-07-15T13:32:11.088Z,3740
2017-07-15T13:33:11.443Z,3600
2017-07-15T13:34:11.796Z,3548
2017-07-15T13:35:11.510Z,3956
2017-07-15T13:36:12.266Z,3524
2017-07-15T13:37:11.244Z,3316
2017-07-15T13:38:11.599Z,3268
2017-07-15T13:39:11.305Z,3296
2017-07-15T13:40:11.991Z,3376
2017-07-15T13:41:12.017Z,3508
2017-07-15T13:42:12.044Z,3628
2017-07-15T13:43:12.095Z,3876
2017-07-15T13:44:11.458Z,4272
2017-07-15T13:45:12.254Z,5676
2017-07-15T13:46:12.265Z,4808
2017-07-15T13:47:12.737Z,4580